createdAt,value
2022-09-18T00:01:33.139Z,72.36
2022-09-18T00:04:03.839Z,72.42
2022-09-18T00:06:35.724Z,72.27
2022-09-18T00:09:06.633Z,72.97
2022-09-18T00:11:43.794Z,72.52
2022-09-18T00:14:16.070Z,72.57
2022-09-18T00:16:43.461Z,72.92
2022-09-18T00:19:11.267Z,73.03
2022-09-18T00:21:42.483Z,72.90
2022-09-18T00:24:09.577Z,72.48
2022-09-18T00:26:36.448Z,72.47
2022-09-18T00:29:04.279Z,72.57
2022-09-18T00:31:35.086Z,73.62
2022-09-18T00:34:08.520Z,73.36
2022-09-18T00:36:38.046Z,73.69
2022-09-18T00:39:06.226Z,73.60
2022-09-18T00:41:38.597Z,73.80
2022-09-18T00:44:42.254Z,73.84
2022-09-18T00:47:18.284Z,74.30
2022-09-18T00:49:49.400Z,74.10
2022-09-18T00:52:18.871Z,74.73
2022-09-18T00:54:50.753Z,74.46
2022-09-18T00:57:24.485Z,74.72
2022-09-18T00:59:52.801Z,74.06
2022-09-18T01:02:20.176Z,73.97
2022-09-18T01:04:48.374Z,73.87
2022-09-18T01:07:46.852Z,74.01
2022-09-18T01:10:31.946Z,74.10
2022-09-18T01:13:22.978Z,74.46
2022-09-18T01:15:57.617Z,74.34
2022-09-18T01:18:51.401Z,74.03
2022-09-18T01:21:38.762Z,74.45
2022-09-18T01:24:23.593Z,74.50
2022-09-18T01:26:50.271Z,74.03
2022-09-18T01:29:29.013Z,74.30
2022-09-18T01:32:16.370Z,74.94
2022-09-18T01:35:14.233Z,74.39
2022-09-18T01:38:04.202Z,74.67
2022-09-18T01:40:42.299Z,74.86
2022-09-18T01:43:14.863Z,74.63
2022-09-18T01:45:47.703Z,74.38
2022-09-18T01:48:28.466Z,74.46
2022-09-18T01:51:04.943Z,74.27
2022-09-18T01:53:38.066Z,74.56
2022-09-18T01:56:37.835Z,74.38
2022-09-18T01:59:12.331Z,75.16
2022-09-18T02:01:43.690Z,74.85
2022-09-18T02:04:22.320Z,75.15
2022-09-18T02:07:01.964Z,74.72
2022-09-18T02:09:29.683Z,75.46
2022-09-18T02:11:59.411Z,75.77
2022-09-18T02:14:35.651Z,75.26
2022-09-18T02:17:28.304Z,75.96
2022-09-18T02:20:01.809Z,77.26
2022-09-18T02:22:32.432Z,77.18
2022-09-18T02:25:07.479Z,77.29
2022-09-18T02:27:38.798Z,76.96
2022-09-18T02:30:08.310Z,76.95
2022-09-18T02:32:40.147Z,77.73
2022-09-18T02:35:09.808Z,77.81
2022-09-18T02:37:57.834Z,77.33
2022-09-18T02:41:01.797Z,78.19
2022-09-18T02:43:46.612Z,79.01
2022-09-18T02:46:36.874Z,78.08
2022-09-18T02:49:09.952Z,78.64
2022-09-18T02:51:46.675Z,78.30
2022-09-18T02:54:42.256Z,78.45
2022-09-18T02:57:18.910Z,78.20
2022-09-18T02:59:54.413Z,78.51
2022-09-18T03:02:22.911Z,78.95
2022-09-18T03:04:50.336Z,78.90
2022-09-18T03:07:18.222Z,79.54
2022-09-18T03:09:45.126Z,79.18
2022-09-18T03:12:12.861Z,79.51
2022-09-18T03:14:39.738Z,79.18
2022-09-18T03:17:07.122Z,78.66
2022-09-18T03:19:33.942Z,79.27
2022-09-18T03:22:01.244Z,78.66
2022-09-18T03:24:28.160Z,78.55
2022-09-18T03:26:55.138Z,78.81
2022-09-18T03:29:21.956Z,78.65
2022-09-18T03:31:48.898Z,78.20
2022-09-18T03:34:15.753Z,79.31
2022-09-18T03:36:42.578Z,78.90
2022-09-18T03:39:09.408Z,78.76
2022-09-18T03:41:36.242Z,78.49
2022-09-18T03:44:03.089Z,77.60
2022-09-18T03:46:29.949Z,77.68
2022-09-18T03:48:56.978Z,77.94
2022-09-18T03:51:23.779Z,78.19
2022-09-18T03:53:53.417Z,77.79
2022-09-18T03:56:20.224Z,77.32
2022-09-18T03:58:47.046Z,77.50
2022-09-18T04:01:13.923Z,77.32
2022-09-18T04:03:40.996Z,77.37
2022-09-18T04:06:08.198Z,77.22
2022-09-18T04:08:36.088Z,77.59
2022-09-18T04:11:04.569Z,78.02
2022-09-18T04:13:33.121Z,77.72
2022-09-18T04:16:00.319Z,77.48
2022-09-18T04:18:27.158Z,78.30
2022-09-18T04:20:53.966Z,77.65
2022-09-18T04:23:20.860Z,77.73
2022-09-18T04:25:47.926Z,77.64
2022-09-18T04:28:14.688Z,77.34
2022-09-18T04:30:41.496Z,77.15
2022-09-18T04:33:08.401Z,77.67
2022-09-18T04:35:35.312Z,77.05
2022-09-18T04:38:02.235Z,77.60
2022-09-18T04:40:29.121Z,77.42
2022-09-18T04:42:56.009Z,77.37
2022-09-18T04:45:23.039Z,77.75
2022-09-18T04:47:50.184Z,78.47
2022-09-18T04:50:17.162Z,77.15
2022-09-18T04:52:44.422Z,76.85
2022-09-18T04:55:11.321Z,77.04
2022-09-18T04:57:38.127Z,77.01
2022-09-18T05:00:06.763Z,77.29
2022-09-18T05:02:33.631Z,76.95
2022-09-18T05:05:00.443Z,76.45
2022-09-18T05:07:27.650Z,76.40
2022-09-18T05:09:54.515Z,76.56
2022-09-18T05:12:21.550Z,76.19
2022-09-18T05:14:48.356Z,76.44
2022-09-18T05:17:15.518Z,76.25
2022-09-18T05:19:42.342Z,76.41
2022-09-18T05:22:09.247Z,75.91
2022-09-18T05:24:36.070Z,76.01
2022-09-18T05:27:03.888Z,76.17
2022-09-18T05:29:30.741Z,75.88
2022-09-18T05:31:57.616Z,75.60
2022-09-18T05:34:24.441Z,76.09
2022-09-18T05:36:51.232Z,75.80
2022-09-18T05:39:18.070Z,75.69
2022-09-18T05:41:49.698Z,76.10
2022-09-18T05:44:17.221Z,76.71
2022-09-18T05:46:44.211Z,76.14
2022-09-18T05:49:11.036Z,76.27
2022-09-18T05:51:39.022Z,76.00
2022-09-18T05:54:06.427Z,76.13
2022-09-18T05:56:33.207Z,75.83
2022-09-18T05:59:00.003Z,75.98
2022-09-18T06:01:26.834Z,75.47
2022-09-18T06:03:53.699Z,74.81
2022-09-18T06:06:20.500Z,75.03
2022-09-18T06:08:47.345Z,75.39
2022-09-18T06:11:14.396Z,76.04
2022-09-18T06:13:41.233Z,75.75
2022-09-18T06:16:08.152Z,76.02
2022-09-18T06:18:35.022Z,75.19
2022-09-18T06:21:01.849Z,76.21
2022-09-18T06:23:29.582Z,75.94
2022-09-18T06:26:00.926Z,76.45
2022-09-18T06:28:28.518Z,75.70
2022-09-18T06:30:55.326Z,75.43
2022-09-18T06:33:22.107Z,74.21
2022-09-18T06:35:49.195Z,73.81
2022-09-18T06:38:16.693Z,72.82
2022-09-18T06:40:54.608Z,71.67
2022-09-18T06:43:21.943Z,70.40
2022-09-18T06:45:53.697Z,69.08
2022-09-18T06:48:20.802Z,68.89
2022-09-18T06:50:55.079Z,68.67
2022-09-18T06:53:22.628Z,69.15
2022-09-18T06:55:50.690Z,68.90
2022-09-18T06:58:19.669Z,68.56
2022-09-18T07:00:47.036Z,67.83
2022-09-18T07:03:13.999Z,67.38
2022-09-18T07:05:42.813Z,67.37
2022-09-18T07:08:10.291Z,67.38
2022-09-18T07:10:37.852Z,67.34
2022-09-18T07:13:04.838Z,66.35
2022-09-18T07:15:32.239Z,65.76
2022-09-18T07:18:01.827Z,65.95
2022-09-18T07:20:29.645Z,67.19
2022-09-18T07:23:01.756Z,67.62
2022-09-18T07:25:31.455Z,67.67
2022-09-18T07:28:07.865Z,67.90
2022-09-18T07:30:37.102Z,67.57
2022-09-18T07:33:06.092Z,67.43
2022-09-18T07:35:33.487Z,67.51
2022-09-18T07:38:01.574Z,67.59
2022-09-18T07:40:29.481Z,67.15
2022-09-18T07:43:08.787Z,66.40
2022-09-18T07:45:36.271Z,65.64
2022-09-18T07:48:05.959Z,65.71
2022-09-18T07:50:33.892Z,64.11
2022-09-18T07:53:03.529Z,63.28
2022-09-18T07:55:30.497Z,63.47
2022-09-18T07:58:00.476Z,63.83
2022-09-18T08:00:31.503Z,63.55
2022-09-18T08:03:11.748Z,62.76
2022-09-18T08:05:40.805Z,61.84
2022-09-18T08:08:12.930Z,62.41
2022-09-18T08:10:41.933Z,62.82
2022-09-18T08:13:09.299Z,62.70
2022-09-18T08:15:40.436Z,62.86
2022-09-18T08:18:09.398Z,62.42
2022-09-18T08:20:36.519Z,61.71
2022-09-18T08:23:06.138Z,61.50
2022-09-18T08:25:33.890Z,60.31
2022-09-18T08:28:02.339Z,59.31
2022-09-18T08:30:30.217Z,58.86
2022-09-18T08:33:06.451Z,59.05
2022-09-18T08:35:33.888Z,58.42
2022-09-18T08:38:01.109Z,57.93
2022-09-18T08:41:02.931Z,57.58
2022-09-18T08:44:00.192Z,56.77
2022-09-18T08:46:43.574Z,57.39
2022-09-18T08:49:29.564Z,59.21
2022-09-18T08:52:08.816Z,60.21
2022-09-18T08:54:41.340Z,59.05
2022-09-18T08:57:19.408Z,58.72
2022-09-18T09:00:09.042Z,60.02
2022-09-18T09:02:41.316Z,60.40
2022-09-18T09:05:22.040Z,60.48
2022-09-18T09:08:16.721Z,60.79
2022-09-18T09:11:21.712Z,60.03
2022-09-18T09:14:01.505Z,59.82
2022-09-18T09:17:05.475Z,58.94
2022-09-18T09:20:27.965Z,57.04
2022-09-18T09:23:01.793Z,56.39
2022-09-18T09:26:04.288Z,56.01
2022-09-18T09:28:37.076Z,55.65
2022-09-18T09:31:09.233Z,55.02
2022-09-18T09:33:51.170Z,55.23
2022-09-18T09:36:24.384Z,54.75
2022-09-18T09:39:26.840Z,54.17
2022-09-18T09:42:22.937Z,53.61
2022-09-18T09:45:13.096Z,53.25
2022-09-18T09:48:16.651Z,52.93
2022-09-18T09:50:57.619Z,53.25
2022-09-18T09:53:26.807Z,53.86
2022-09-18T09:56:36.647Z,54.41
2022-09-18T09:59:22.490Z,54.29
2022-09-18T10:02:20.986Z,54.54
2022-09-18T10:05:16.307Z,54.23
2022-09-18T10:07:50.026Z,54.00
2022-09-18T10:10:47.685Z,52.27
2022-09-18T10:13:39.685Z,48.21
2022-09-18T10:16:29.578Z,43.82
2022-09-18T10:18:57.776Z,41.56
2022-09-18T10:21:28.819Z,43.30
2022-09-18T10:24:35.882Z,46.50
2022-09-18T10:27:09.943Z,47.37
2022-09-18T10:29:37.022Z,48.38
2022-09-18T10:32:04.670Z,48.90
2022-09-18T10:34:47.456Z,50.78
2022-09-18T10:37:29.151Z,51.63
2022-09-18T10:40:01.391Z,51.88
2022-09-18T10:42:32.101Z,52.82
2022-09-18T10:45:06.679Z,53.17
2022-09-18T10:47:38.005Z,52.73
2022-09-18T10:50:14.162Z,52.12
2022-09-18T10:52:42.767Z,52.35
2022-09-18T10:55:20.822Z,51.92
2022-09-18T10:57:56.790Z,51.77
2022-09-18T11:00:24.277Z,51.64
2022-09-18T11:03:12.250Z,50.59
2022-09-18T11:05:53.980Z,49.24
2022-09-18T11:08:26.834Z,48.74
2022-09-18T11:11:09.118Z,48.76
2022-09-18T11:13:49.792Z,48.27
2022-09-18T11:16:25.099Z,48.58
2022-09-18T11:19:07.599Z,48.64
2022-09-18T11:21:45.536Z,48.79
2022-09-18T11:24:31.179Z,49.08
2022-09-18T11:27:01.118Z,49.69
2022-09-18T11:29:39.814Z,50.92
2022-09-18T11:32:31.709Z,51.33
2022-09-18T11:35:03.155Z,52.19
2022-09-18T11:37:56.007Z,51.91
2022-09-18T11:40:31.895Z,51.47
2022-09-18T11:43:02.910Z,52.38
2022-09-18T11:46:06.266Z,52.46
2022-09-18T11:48:53.181Z,52.58
2022-09-18T11:51:26.779Z,53.41
2022-09-18T11:54:05.406Z,54.16
2022-09-18T11:56:49.293Z,55.06
2022-09-18T11:59:28.960Z,54.97
2022-09-18T12:02:13.545Z,55.06
2022-09-18T12:04:49.342Z,53.90
2022-09-18T12:07:38.723Z,53.13
2022-09-18T12:10:33.370Z,52.75
2022-09-18T12:13:15.130Z,51.69
2022-09-18T12:15:53.063Z,51.05
2022-09-18T12:18:29.843Z,50.75
2022-09-18T12:21:13.588Z,49.90
2022-09-18T12:23:41.321Z,49.62
2022-09-18T12:27:14.047Z,50.02
2022-09-18T12:29:41.389Z,50.23
2022-09-18T12:32:34.165Z,51.03
2022-09-18T12:35:28.308Z,50.42
2022-09-18T12:38:00.821Z,51.00
2022-09-18T12:41:10.927Z,51.38
2022-09-18T12:44:08.961Z,51.83
2022-09-18T12:47:19.909Z,52.13
2022-09-18T12:50:32.388Z,52.94
2022-09-18T12:53:36.171Z,52.28
2022-09-18T12:56:21.646Z,52.47
2022-09-18T12:59:27.801Z,51.61
2022-09-18T13:02:32.015Z,52.42
2022-09-18T13:05:28.956Z,52.06
2022-09-18T13:08:15.740Z,51.88
2022-09-18T13:10:46.947Z,51.43
2022-09-18T13:13:36.079Z,51.36
2022-09-18T13:16:15.063Z,51.61
2022-09-18T13:19:02.024Z,51.14
2022-09-18T13:21:41.715Z,51.39
2022-09-18T13:24:17.043Z,50.81
2022-09-18T13:26:48.216Z,50.60
2022-09-18T13:29:52.276Z,50.53
2022-09-18T13:32:35.147Z,51.03
2022-09-18T13:35:19.973Z,50.27
2022-09-18T13:37:48.660Z,50.72
2022-09-18T13:40:39.939Z,50.52
2022-09-18T13:43:28.687Z,51.03
2022-09-18T13:46:07.355Z,50.35
2022-09-18T13:48:40.277Z,50.02
2022-09-18T13:51:24.977Z,49.52
2022-09-18T13:54:13.426Z,48.72
2022-09-18T13:57:02.711Z,49.63
2022-09-18T14:00:06.690Z,49.70
2022-09-18T14:02:40.993Z,50.04
2022-09-18T14:05:10.100Z,50.17
2022-09-18T14:07:36.816Z,50.36
2022-09-18T14:10:06.699Z,50.86
2022-09-18T14:12:35.803Z,51.03
2022-09-18T14:15:15.515Z,51.23
2022-09-18T14:17:42.930Z,51.04
2022-09-18T14:20:21.942Z,51.10
2022-09-18T14:22:49.017Z,51.11
2022-09-18T14:25:46.668Z,50.95
2022-09-18T14:28:14.563Z,50.95
2022-09-18T14:30:41.396Z,50.99
2022-09-18T14:33:11.623Z,51.37
2022-09-18T14:36:02.118Z,51.18
2022-09-18T14:38:31.557Z,51.00
2022-09-18T14:41:31.959Z,50.64
2022-09-18T14:44:01.702Z,50.24
2022-09-18T14:46:29.046Z,49.19
2022-09-18T14:48:56.096Z,49.38
2022-09-18T14:51:35.069Z,49.40
2022-09-18T14:54:23.405Z,49.42
2022-09-18T14:56:54.926Z,49.07
2022-09-18T14:59:24.059Z,49.65
2022-09-18T15:01:51.527Z,49.59
2022-09-18T15:04:22.716Z,49.22
2022-09-18T15:06:56.386Z,49.06
2022-09-18T15:09:33.369Z,49.46
2022-09-18T15:12:03.002Z,49.66
2022-09-18T15:14:46.818Z,49.86
2022-09-18T15:17:26.260Z,49.62
2022-09-18T15:20:15.152Z,49.65
2022-09-18T15:22:42.196Z,49.13
2022-09-18T15:25:13.927Z,49.42
2022-09-18T15:27:42.367Z,49.51
2022-09-18T15:30:22.688Z,49.29
2022-09-18T15:33:03.902Z,49.63
2022-09-18T15:35:35.982Z,49.62
2022-09-18T15:38:07.430Z,49.12
2022-09-18T15:40:38.531Z,49.68
2022-09-18T15:43:35.372Z,49.57
2022-09-18T15:46:11.813Z,49.38
2022-09-18T15:48:48.071Z,49.69
2022-09-18T15:51:29.275Z,48.96
2022-09-18T15:54:12.102Z,48.98
2022-09-18T15:56:58.387Z,49.13
2022-09-18T15:59:40.561Z,49.15
2022-09-18T16:02:29.118Z,49.33
2022-09-18T16:04:56.334Z,49.73
2022-09-18T16:07:28.795Z,49.39
2022-09-18T16:09:55.653Z,49.96
2022-09-18T16:12:30.467Z,50.84
2022-09-18T16:15:16.232Z,50.57
2022-09-18T16:17:46.213Z,50.51
2022-09-18T16:20:40.262Z,50.48
2022-09-18T16:23:31.157Z,51.19
2022-09-18T16:26:12.814Z,52.16
2022-09-18T16:28:53.445Z,53.01
2022-09-18T16:31:28.081Z,52.71
2022-09-18T16:34:05.775Z,53.43
2022-09-18T16:36:41.531Z,53.30
2022-09-18T16:39:14.887Z,53.01
2022-09-18T16:41:42.359Z,54.18
2022-09-18T16:44:11.632Z,54.14
2022-09-18T16:46:49.286Z,55.08
2022-09-18T16:49:26.794Z,54.41
2022-09-18T16:51:55.530Z,54.79
2022-09-18T16:54:22.327Z,54.82
2022-09-18T16:56:56.426Z,54.32
2022-09-18T16:59:29.087Z,53.89
2022-09-18T17:02:04.160Z,53.58
2022-09-18T17:04:33.436Z,54.45
2022-09-18T17:07:00.937Z,54.08
2022-09-18T17:09:28.004Z,54.31
2022-09-18T17:11:55.550Z,55.29
2022-09-18T17:14:23.159Z,56.12
2022-09-18T17:16:50.287Z,56.06
2022-09-18T17:19:17.637Z,57.30
2022-09-18T17:21:45.087Z,57.33
2022-09-18T17:24:12.266Z,58.39
2022-09-18T17:26:56.972Z,59.17
2022-09-18T17:29:23.809Z,59.66
2022-09-18T17:31:52.147Z,59.56
2022-09-18T17:34:20.964Z,59.88
2022-09-18T17:36:49.002Z,61.41
2022-09-18T17:39:17.000Z,60.94
2022-09-18T17:41:45.613Z,61.49
2022-09-18T17:44:12.575Z,62.12
2022-09-18T17:46:39.514Z,62.61
2022-09-18T17:49:06.585Z,63.16
2022-09-18T17:51:33.437Z,62.00
2022-09-18T17:54:03.536Z,62.96
2022-09-18T17:56:32.980Z,63.64
2022-09-18T17:59:05.524Z,64.44
2022-09-18T18:01:36.320Z,64.62
2022-09-18T18:04:05.106Z,64.34
2022-09-18T18:06:32.440Z,65.64
2022-09-18T18:08:59.285Z,66.15
2022-09-18T18:11:26.232Z,66.53
2022-09-18T18:13:54.624Z,67.31
2022-09-18T18:16:31.020Z,66.38
2022-09-18T18:19:02.674Z,66.96
2022-09-18T18:21:32.380Z,67.37
2022-09-18T18:24:08.845Z,67.13
2022-09-18T18:26:38.258Z,65.63
2022-09-18T18:29:08.048Z,66.87
2022-09-18T18:31:34.991Z,66.04
2022-09-18T18:34:02.020Z,64.65
2022-09-18T18:36:31.801Z,63.86
2022-09-18T18:39:00.844Z,63.55
2022-09-18T18:41:29.942Z,63.76
2022-09-18T18:43:59.877Z,63.20
2022-09-18T18:46:29.897Z,62.97
2022-09-18T18:49:02.746Z,63.59
2022-09-18T18:51:45.881Z,62.58
2022-09-18T18:54:17.920Z,62.89
2022-09-18T18:56:46.219Z,64.08
2022-09-18T18:59:17.434Z,62.17
2022-09-18T19:01:44.878Z,61.58
2022-09-18T19:04:16.446Z,61.60
2022-09-18T19:06:44.492Z,61.54
2022-09-18T19:09:20.256Z,62.33
2022-09-18T19:11:49.713Z,62.12
2022-09-18T19:14:20.348Z,61.27
2022-09-18T19:16:49.048Z,61.27
2022-09-18T19:19:20.863Z,61.98
2022-09-18T19:21:48.223Z,61.85
2022-09-18T19:24:16.531Z,61.23
2022-09-18T19:26:46.359Z,61.84
2022-09-18T19:29:16.783Z,61.91
2022-09-18T19:31:45.909Z,61.68
2022-09-18T19:34:19.235Z,61.93
2022-09-18T19:36:52.127Z,61.84
2022-09-18T19:39:24.749Z,62.29
2022-09-18T19:42:12.388Z,62.32
2022-09-18T19:44:56.084Z,61.89
2022-09-18T19:47:34.078Z,61.95
2022-09-18T19:50:05.298Z,62.05
2022-09-18T19:52:52.912Z,61.53
2022-09-18T19:55:37.752Z,60.80
2022-09-18T19:58:04.846Z,61.63
2022-09-18T20:00:31.980Z,61.06
2022-09-18T20:03:00.003Z,60.88
2022-09-18T20:05:29.788Z,61.64
2022-09-18T20:08:01.412Z,61.88
2022-09-18T20:10:28.309Z,61.92
2022-09-18T20:12:56.690Z,62.54
2022-09-18T20:15:27.763Z,62.96
2022-09-18T20:17:56.460Z,64.51
2022-09-18T20:20:26.333Z,65.44
2022-09-18T20:22:56.862Z,65.96
2022-09-18T20:25:25.134Z,66.67
2022-09-18T20:27:51.976Z,66.66
2022-09-18T20:30:19.467Z,67.73
2022-09-18T20:32:46.389Z,69.25
2022-09-18T20:35:13.337Z,70.50
2022-09-18T20:37:40.314Z,71.05
2022-09-18T20:40:12.368Z,71.64
2022-09-18T20:42:39.277Z,72.62
2022-09-18T20:45:08.498Z,72.89
2022-09-18T20:47:37.263Z,73.66
2022-09-18T20:50:09.238Z,75.55
2022-09-18T20:52:42.988Z,76.14
2022-09-18T20:55:13.488Z,78.87
2022-09-18T20:57:41.378Z,79.90
2022-09-18T21:00:10.659Z,81.54
2022-09-18T21:02:38.126Z,83.09
2022-09-18T21:05:14.485Z,83.58
2022-09-18T21:07:43.728Z,82.53
2022-09-18T21:10:12.868Z,83.06
2022-09-18T21:12:40.057Z,82.79
2022-09-18T21:15:13.013Z,84.11
2022-09-18T21:17:39.968Z,83.62
2022-09-18T21:20:07.293Z,84.92
2022-09-18T21:22:54.070Z,84.26
2022-09-18T21:25:21.731Z,84.69
2022-09-18T21:27:49.378Z,84.47
2022-09-18T21:30:16.268Z,85.39
2022-09-18T21:32:43.113Z,85.42
2022-09-18T21:35:09.940Z,85.50
2022-09-18T21:37:36.734Z,84.13
2022-09-18T21:40:04.183Z,83.75
2022-09-18T21:42:31.099Z,84.00
2022-09-18T21:45:00.814Z,83.51
2022-09-18T21:47:27.650Z,84.11
2022-09-18T21:49:55.475Z,83.66
2022-09-18T21:52:22.282Z,83.58
2022-09-18T21:54:49.511Z,83.88
2022-09-18T21:57:16.493Z,84.24
2022-09-18T21:59:43.382Z,84.89
2022-09-18T22:02:11.612Z,85.01
2022-09-18T22:04:39.412Z,84.41
2022-09-18T22:07:06.222Z,84.18
2022-09-18T22:09:39.238Z,84.51
2022-09-18T22:12:07.646Z,85.50
2022-09-18T22:14:35.595Z,85.17
2022-09-18T22:17:06.597Z,84.47
2022-09-18T22:19:38.047Z,84.06
2022-09-18T22:22:07.547Z,86.04
2022-09-18T22:24:34.545Z,85.60
2022-09-18T22:27:05.746Z,87.00
2022-09-18T22:29:34.880Z,87.05
2022-09-18T22:32:02.102Z,87.35
2022-09-18T22:34:32.226Z,88.13
2022-09-18T22:37:00.508Z,88.55
2022-09-18T22:39:27.474Z,89.16
2022-09-18T22:41:54.878Z,88.54
2022-09-18T22:44:22.721Z,89.95
2022-09-18T22:46:54.272Z,90.88
2022-09-18T22:49:23.182Z,90.08
2022-09-18T22:51:50.665Z,91.31
2022-09-18T22:54:23.667Z,91.25
2022-09-18T22:56:52.124Z,90.90
2022-09-18T22:59:22.235Z,92.21
2022-09-18T23:02:02.370Z,91.34
2022-09-18T23:04:31.613Z,91.78
2022-09-18T23:06:59.315Z,92.72
2022-09-18T23:09:27.284Z,91.44
2022-09-18T23:11:54.699Z,92.19
2022-09-18T23:14:26.061Z,91.65
2022-09-18T23:16:53.454Z,91.57
2022-09-18T23:19:23.704Z,90.73
2022-09-18T23:21:50.937Z,90.81
2022-09-18T23:24:18.253Z,91.04
2022-09-18T23:26:48.467Z,91.63
2022-09-18T23:29:20.737Z,90.50
2022-09-18T23:31:53.300Z,90.84
2022-09-18T23:34:27.733Z,89.50
2022-09-18T23:36:56.141Z,89.44
2022-09-18T23:39:29.265Z,88.56
2022-09-18T23:41:58.766Z,87.85
2022-09-18T23:44:28.576Z,88.09
2022-09-18T23:46:55.461Z,88.90
2022-09-18T23:49:23.770Z,87.30
2022-09-18T23:51:53.882Z,87.40
2022-09-18T23:54:23.443Z,87.67
2022-09-18T23:56:50.772Z,87.18
2022-09-18T23:59:22.654Z,87.69
